Time;durP1;ratioP1;P1;durP2;ratioP2;P2;SDS_P1;SDS_P2;PMS_P1;PMS_P2;Temp;Humidity;BMP_temperature;BMP_pressure;BME280_temperature;BME280_humidity;BME280_pressure;Samples;Min_cycle;Max_cycle;Signal;HPM_P1;HPM_P2
2021/10/27 04:31:11;;;;;;;4.47;4.07;;;3.50;99.90;;;;;;5893036;22;20518;-85
2021/10/27 04:33:36;;;;;;;3.50;3.20;;;3.60;99.90;;;;;;5026550;28;20523;-85
2021/10/27 04:36:02;;;;;;;8.00;3.20;;;3.60;99.90;;;;;;5052947;28;20178;-84
2021/10/27 04:38:28;;;;;;;4.60;4.20;;;3.60;99.90;;;;;;5034254;28;20179;-85
2021/10/27 04:40:55;;;;;;;3.90;3.20;;;3.60;99.90;;;;;;5032538;28;20485;-85
2021/10/27 04:43:21;;;;;;;4.17;3.77;;;3.60;99.90;;;;;;5032512;28;20191;-85
2021/10/27 04:45:46;;;;;;;4.43;4.03;;;3.50;99.90;;;;;;5032383;28;20405;-85
2021/10/27 04:48:13;;;;;;;4.33;3.90;;;3.60;99.90;;;;;;5030074;28;20180;-85
2021/10/27 04:50:39;;;;;;;17.57;3.87;;;3.60;99.90;;;;;;5033397;28;20201;-85
2021/10/27 04:53:12;;;;;;;3.70;3.40;;;3.60;99.90;;;;;;5031453;28;20966;-85
2021/10/27 04:55:37;;;;;;;6.00;4.03;;;3.60;99.90;;;;;;5031065;28;20183;-85
2021/10/27 04:58:03;;;;;;;4.37;3.97;;;3.60;99.90;;;;;;5030537;28;20470;-85
2021/10/27 05:00:28;;;;;;;8.53;4.67;;;3.50;99.90;;;;;;5032398;28;20695;-85
2021/10/27 05:02:54;;;;;;;4.80;4.30;;;3.50;99.90;;;;;;5028653;28;20193;-85
2021/10/27 05:05:19;;;;;;;6.30;4.63;;;3.50;99.90;;;;;;5024144;28;20318;-85
2021/10/27 05:07:45;;;;;;;4.63;4.17;;;3.50;99.90;;;;;;5033180;28;20180;-85
2021/10/27 05:10:11;;;;;;;5.93;4.20;;;3.50;99.90;;;;;;5031062;28;20184;-85
2021/10/27 05:12:37;;;;;;;5.30;4.80;;;3.50;99.90;;;;;;5032625;28;20208;-85
2021/10/27 05:15:03;;;;;;;6.07;4.03;;;3.50;99.90;;;;;;5029639;28;20459;-85
2021/10/27 05:17:28;;;;;;;4.53;4.10;;;3.50;99.90;;;;;;5030895;28;20219;-85
2021/10/27 05:19:54;;;;;;;6.57;4.70;;;3.50;99.90;;;;;;5030396;28;20466;-85
2021/10/27 05:22:20;;;;;;;4.93;4.37;;;3.50;99.90;;;;;;5032151;28;20199;-85
2021/10/27 05:24:46;;;;;;;12.43;4.37;;;3.50;99.90;;;;;;5029755;28;20533;-85
2021/10/27 05:27:12;;;;;;;5.73;4.27;;;3.60;99.90;;;;;;5030543;28;20484;-85
2021/10/27 05:29:38;;;;;;;5.50;5.00;;;3.60;99.90;;;;;;5031915;28;20176;-85
2021/10/27 05:32:06;;;;;;;8.33;5.13;;;3.60;99.90;;;;;;5032574;28;20220;-85
2021/10/27 05:34:32;;;;;;;7.10;5.70;;;3.70;99.90;;;;;;5030583;28;20209;-85
2021/10/27 05:36:58;;;;;;;10.20;6.13;;;3.80;99.90;;;;;;5036147;28;20454;-85
2021/10/27 05:39:23;;;;;;;8.13;6.20;;;4.00;99.90;;;;;;5034335;28;20422;-85
2021/10/27 05:41:49;;;;;;;7.87;6.70;;;4.10;99.90;;;;;;5035047;28;20204;-85
2021/10/27 05:44:19;;;;;;;16.83;9.07;;;4.30;99.90;;;;;;5036449;28;20402;-85
2021/10/27 05:46:48;;;;;;;8.80;6.80;;;4.40;99.90;;;;;;5027760;28;20557;-85
2021/10/27 05:49:22;;;;;;;7.23;5.30;;;4.50;99.90;;;;;;5036388;28;20970;-85
2021/10/27 05:51:57;;;;;;;11.27;8.60;;;4.50;99.90;;;;;;5032109;28;20485;-85
2021/10/27 05:57:07;;;;;;;11.10;6.30;;;4.70;99.90;;;;;;5033514;28;20450;-83
2021/10/27 05:59:33;;;;;;;7.10;6.47;;;4.80;99.90;;;;;;5037444;28;20412;-85
2021/10/27 06:01:59;;;;;;;11.20;7.80;;;4.80;99.90;;;;;;5030556;28;20583;-85
2021/10/27 06:04:24;;;;;;;9.20;7.30;;;4.90;99.90;;;;;;5035950;28;20184;-86
2021/10/27 06:06:50;;;;;;;10.13;7.53;;;5.00;99.90;;;;;;5033679;28;20245;-85
2021/10/27 06:09:16;;;;;;;16.07;8.20;;;5.10;99.90;;;;;;5036424;28;20202;-86
2021/10/27 06:11:43;;;;;;;14.63;8.60;;;5.20;99.90;;;;;;5034073;28;20204;-86
2021/10/27 06:14:09;;;;;;;11.47;8.90;;;5.40;99.90;;;;;;5036464;28;20411;-85
2021/10/27 06:16:34;;;;;;;9.47;8.43;;;5.50;99.90;;;;;;5033955;28;20441;-86
2021/10/27 06:19:00;;;;;;;16.47;8.40;;;5.70;99.90;;;;;;5034262;28;20530;-85
2021/10/27 06:21:26;;;;;;;12.77;9.30;;;5.70;99.90;;;;;;5034559;28;20198;-86
2021/10/27 06:23:53;;;;;;;10.13;7.20;;;5.70;99.90;;;;;;5035077;28;20428;-85
2021/10/27 06:26:23;;;;;;;11.73;7.43;;;5.80;99.90;;;;;;5036237;28;20507;-85
2021/10/27 06:29:10;;;;;;;14.60;7.27;;;5.90;99.90;;;;;;5032655;28;20776;-86
2021/10/27 06:31:49;;;;;;;14.10;7.23;;;6.00;99.90;;;;;;5033476;28;20876;-86
2021/10/27 06:47:30;;;;;;;14.20;10.67;;;6.60;99.90;;;;;;5033014;28;20446;-85
2021/10/27 06:49:56;;;;;;;11.27;9.60;;;6.70;99.90;;;;;;5034721;28;20491;-86
2021/10/27 06:52:21;;;;;;;16.87;10.90;;;6.80;99.90;;;;;;5035397;28;20461;-85
2021/10/27 06:54:49;;;;;;;19.30;10.23;;;6.90;99.90;;;;;;5033418;28;20190;-85
2021/10/27 06:57:18;;;;;;;17.43;10.83;;;7.00;99.90;;;;;;5034380;28;20185;-87
2021/10/27 06:59:44;;;;;;;15.77;11.13;;;7.10;99.90;;;;;;5031397;28;20446;-86
2021/10/27 07:02:33;;;;;;;20.40;10.30;;;7.20;99.90;;;;;;5032824;28;20465;-86
2021/10/27 07:15:56;;;;;;;12.67;7.77;;;9.60;99.90;;;;;;5031306;28;20497;-86
2021/10/27 07:18:22;;;;;;;12.23;8.57;;;10.80;99.90;;;;;;5026500;28;20850;-86
2021/10/27 07:20:47;;;;;;;11.33;7.10;;;12.00;99.90;;;;;;5033460;28;20552;-86
2021/10/27 07:23:14;;;;;;;8.70;7.80;;;12.90;99.90;;;;;;5034621;28;20686;-86
2021/10/27 07:25:40;;;;;;;7.20;6.43;;;14.00;99.90;;;;;;5030593;28;20232;-84
2021/10/27 07:28:06;;;;;;;7.93;7.07;;;14.40;99.90;;;;;;5034404;28;20452;-83
2021/10/27 07:30:32;;;;;;;8.10;6.40;;;14.80;99.90;;;;;;5032334;28;20922;-83
2021/10/27 07:32:58;;;;;;;9.30;6.93;;;15.00;99.90;;;;;;5027641;28;20500;-83
2021/10/27 07:35:36;;;;;;;10.50;6.83;;;15.10;99.90;;;;;;5020022;28;20436;-83
2021/10/27 07:41:05;;;;;;;8.83;7.37;;;15.30;99.90;;;;;;4991899;28;20497;-84
2021/10/27 07:43:32;;;;;;;11.63;6.60;;;15.40;99.90;;;;;;4992714;28;20777;-83
2021/10/27 07:46:00;;;;;;;11.43;8.00;;;15.20;99.90;;;;;;4999730;28;20194;-83
2021/10/27 07:48:26;;;;;;;18.50;8.00;;;15.30;99.90;;;;;;5029150;28;20433;-83
2021/10/27 07:50:52;;;;;;;10.10;7.40;;;15.40;99.90;;;;;;5032398;28;20463;-84
2021/10/27 07:53:18;;;;;;;10.23;7.87;;;15.40;99.90;;;;;;5034118;28;20461;-83
2021/10/27 07:55:46;;;;;;;11.90;7.80;;;15.20;99.90;;;;;;5034218;28;20890;-83
2021/10/27 07:58:15;;;;;;;9.83;7.17;;;14.70;99.90;;;;;;5034717;28;20184;-83
2021/10/27 08:00:42;;;;;;;12.80;8.00;;;14.40;99.90;;;;;;5037437;28;20492;-83
2021/10/27 08:03:07;;;;;;;10.57;7.90;;;14.10;99.90;;;;;;5031024;28;20436;-83
2021/10/27 08:05:37;;;;;;;11.27;7.53;;;14.00;99.90;;;;;;5036921;28;20413;-83
2021/10/27 08:08:04;;;;;;;8.83;7.43;;;13.80;99.90;;;;;;5032622;28;20190;-83
2021/10/27 08:10:29;;;;;;;14.20;8.00;;;13.90;99.90;;;;;;5037220;28;20783;-83
2021/10/27 08:12:56;;;;;;;9.23;8.03;;;14.10;99.90;;;;;;5034695;28;20464;-83
2021/10/27 08:15:23;;;;;;;8.83;7.50;;;14.10;99.90;;;;;;5037106;28;20595;-83
2021/10/27 08:17:49;;;;;;;12.73;7.83;;;14.20;99.90;;;;;;5033040;28;20466;-83
2021/10/27 08:20:17;;;;;;;14.50;7.47;;;14.30;99.90;;;;;;5036968;28;20426;-83
2021/10/27 08:22:45;;;;;;;9.50;8.10;;;14.30;99.90;;;;;;5034641;28;20437;-83
2021/10/27 08:25:28;;;;;;;10.10;8.07;;;13.70;99.90;;;;;;5037121;28;20448;-83
2021/10/27 08:28:01;;;;;;;10.83;7.80;;;13.40;99.90;;;;;;5036034;28;20500;-83
2021/10/27 08:30:34;;;;;;;12.80;8.00;;;13.40;99.90;;;;;;5036112;28;20455;-84
2021/10/27 08:33:03;;;;;;;11.23;7.90;;;13.40;99.90;;;;;;5030354;28;20484;-83
2021/10/27 08:35:30;;;;;;;10.07;8.17;;;13.60;99.90;;;;;;5034712;28;20784;-83
2021/10/27 08:37:57;;;;;;;12.10;7.80;;;13.70;99.90;;;;;;5034076;28;20440;-83
2021/10/27 08:40:23;;;;;;;8.37;7.47;;;13.90;99.90;;;;;;5034668;28;20953;-83
2021/10/27 08:42:49;;;;;;;10.83;8.00;;;14.00;99.90;;;;;;5035681;28;20419;-83
2021/10/27 08:45:15;;;;;;;14.07;8.37;;;14.20;99.90;;;;;;5035454;28;20288;-83
2021/10/27 08:47:41;;;;;;;8.70;7.60;;;14.50;99.90;;;;;;5034670;28;20270;-83
2021/10/27 08:50:11;;;;;;;14.03;7.70;;;14.50;99.90;;;;;;5035264;28;20987;-83
2021/10/27 08:52:42;;;;;;;10.63;7.63;;;14.80;99.90;;;;;;5036895;28;20885;-82
2021/10/27 08:55:10;;;;;;;12.00;7.50;;;14.60;99.90;;;;;;5034585;28;20432;-83
2021/10/27 08:57:36;;;;;;;8.70;7.80;;;14.90;99.90;;;;;;5037204;28;20921;-82
2021/10/27 09:00:51;;;;;;;7.77;6.90;;;15.10;99.90;;;;;;5034344;28;20443;-83
2021/10/27 09:16:27;;;;;;;14.40;7.97;;;16.50;99.90;;;;;;5033786;28;20448;-85
2021/10/27 09:56:24;;;;;;;9.40;7.17;;;16.90;99.90;;;;;;5035805;28;20463;-83
2021/10/27 10:04:26;;;;;;;10.07;8.50;;;17.70;99.90;;;;;;5032841;28;20527;-83
2021/10/27 10:06:56;;;;;;;10.30;7.90;;;18.10;99.90;;;;;;5033334;28;20429;-83
2021/10/27 10:09:22;;;;;;;8.77;6.67;;;18.00;99.90;;;;;;5015522;28;20504;-83
2021/10/27 10:11:49;;;;;;;11.00;8.07;;;18.00;99.90;;;;;;5014654;28;20452;-83
2021/10/27 10:14:15;;;;;;;8.47;7.67;;;17.80;99.90;;;;;;5031979;28;20185;-83
2021/10/27 10:16:49;;;;;;;9.93;6.57;;;17.80;99.90;;;;;;5036132;28;20408;-83
2021/10/27 10:19:21;;;;;;;8.90;7.13;;;17.90;99.90;;;;;;5037580;28;20435;-83
2021/10/27 10:21:48;;;;;;;9.13;8.03;;;18.00;99.90;;;;;;5038502;28;20420;-83
2021/10/27 10:24:18;;;;;;;12.80;8.23;;;18.40;99.90;;;;;;5033564;28;20423;-83
2021/10/27 10:26:58;;;;;;;8.27;7.37;;;18.50;99.90;;;;;;5040276;28;20749;-83
2021/10/27 10:29:37;;;;;;;12.53;8.17;;;18.60;99.90;;;;;;5035555;28;20482;-83
2021/10/27 10:32:27;;;;;;;12.37;8.17;;;18.50;99.90;;;;;;5035237;28;20503;-83
2021/10/27 10:34:57;;;;;;;9.40;6.90;;;18.30;99.90;;;;;;5033340;28;20428;-83
2021/10/27 10:37:33;;;;;;;9.63;8.13;;;18.20;99.90;;;;;;5038149;28;20404;-83
2021/10/27 10:40:07;;;;;;;11.67;8.93;;;17.90;99.90;;;;;;5035909;28;20444;-83
2021/10/27 10:45:50;;;;;;;12.23;8.80;;;17.60;99.90;;;;;;5035135;28;20435;-83
2021/10/27 11:25:13;;;;;;;19.90;6.90;;;17.20;99.90;;;;;;5034729;28;20424;-84
2021/10/27 11:41:35;;;;;;;8.90;5.70;;;17.30;99.90;;;;;;5034353;28;20460;-84
2021/10/27 11:44:13;;;;;;;6.90;5.80;;;17.10;99.90;;;;;;5034851;28;20417;-84
2021/10/27 11:47:01;;;;;;;10.33;5.20;;;17.00;99.90;;;;;;5029862;28;20474;-84
2021/10/27 11:49:37;;;;;;;6.53;4.80;;;16.80;99.90;;;;;;5034163;28;20431;-84
2021/10/27 11:52:03;;;;;;;7.97;5.10;;;16.80;99.90;;;;;;5031748;28;20471;-84
2021/10/27 11:54:30;;;;;;;14.27;4.90;;;16.70;99.90;;;;;;5034380;28;20417;-84
2021/10/27 11:56:58;;;;;;;6.37;5.17;;;16.50;99.90;;;;;;5032355;28;20916;-84
2021/10/27 11:59:25;;;;;;;6.00;5.30;;;16.30;99.90;;;;;;5031985;28;20452;-84
2021/10/27 12:01:55;;;;;;;8.40;5.20;;;16.20;99.90;;;;;;5031835;28;21004;-84
2021/10/27 12:04:30;;;;;;;9.30;5.77;;;16.10;99.90;;;;;;5033553;28;20455;-84
2021/10/27 12:07:08;;;;;;;6.40;4.80;;;16.20;99.90;;;;;;5031237;28;20444;-84
2021/10/27 12:09:45;;;;;;;9.73;4.57;;;16.10;99.90;;;;;;5025242;28;20800;-84
2021/10/27 12:18:11;;;;;;;10.00;4.20;;;16.10;99.90;;;;;;5019867;28;20435;-84
2021/10/27 12:20:46;;;;;;;5.87;3.60;;;16.00;99.90;;;;;;5033666;28;20440;-84
2021/10/27 12:23:22;;;;;;;4.30;3.70;;;16.10;99.90;;;;;;5031335;28;20535;-84
2021/10/27 12:25:48;;;;;;;4.50;3.53;;;16.30;99.90;;;;;;5033431;28;20451;-84
2021/10/27 12:28:31;;;;;;;6.57;3.83;;;16.40;99.90;;;;;;5031918;28;20964;-84
2021/10/27 12:30:57;;;;;;;4.40;3.23;;;16.30;99.90;;;;;;5029844;28;20820;-84
2021/10/27 12:33:40;;;;;;;4.43;2.90;;;16.30;99.90;;;;;;5028206;28;20475;-84
2021/10/27 12:36:27;;;;;;;3.90;1.80;;;16.30;99.90;;;;;;5013700;28;20409;-84
2021/10/27 12:42:06;;;;;;;4.80;2.23;;;16.10;99.90;;;;;;5031890;28;20441;-84
2021/10/27 12:44:33;;;;;;;4.10;1.10;;;16.10;99.90;;;;;;5029215;28;20932;-84
2021/10/27 12:47:17;;;;;;;1.83;1.40;;;16.20;99.90;;;;;;5031059;28;20893;-84
2021/10/27 12:49:46;;;;;;;1.80;1.53;;;16.20;99.90;;;;;;5019556;28;20799;-84
2021/10/27 12:52:28;;;;;;;2.30;1.97;;;16.20;99.90;;;;;;5029999;28;20510;-84
2021/10/27 12:55:14;;;;;;;1.67;1.40;;;16.20;99.90;;;;;;5030420;28;21106;-84
2021/10/27 12:57:48;;;;;;;2.77;2.10;;;16.20;99.90;;;;;;5032808;28;20393;-84
2021/10/27 13:00:33;;;;;;;2.60;1.77;;;16.20;99.90;;;;;;5033012;28;20468;-84
2021/10/27 13:11:23;;;;;;;4.50;2.07;;;16.40;99.90;;;;;;5033581;28;20469;-85
2021/10/27 13:14:02;;;;;;;2.23;2.03;;;16.30;99.90;;;;;;5039118;28;20194;-84
2021/10/27 13:31:58;;;;;;;5.87;2.23;;;16.30;99.90;;;;;;5025443;28;20988;-84
2021/10/27 13:34:24;;;;;;;1.87;1.77;;;16.30;99.90;;;;;;5030143;28;20444;-84
2021/10/27 13:36:51;;;;;;;9.33;7.63;;;16.20;99.90;;;;;;5030076;28;20462;-84
2021/10/27 13:39:17;;;;;;;6.90;2.83;;;16.20;99.90;;;;;;5032347;28;20189;-84
2021/10/27 13:41:47;;;;;;;3.20;2.67;;;16.10;99.90;;;;;;5032130;28;20452;-84
2021/10/27 13:44:19;;;;;;;2.83;2.60;;;16.10;99.90;;;;;;5030377;28;20213;-85
2021/10/27 13:49:40;;;;;;;5.33;3.50;;;15.90;99.90;;;;;;5013881;28;20508;-84
2021/10/27 13:57:51;;;;;;;3.10;2.80;;;15.90;99.90;;;;;;5033956;28;20997;-85
2021/10/27 13:58:27;;;;;;;5.57;2.90;;;16.00;99.90;;;;;;5032093;28;20925;-85
2021/10/27 14:06:11;;;;;;;3.80;3.47;;;15.90;99.90;;;;;;5016481;28;20446;-84
2021/10/27 14:08:50;;;;;;;3.23;3.00;;;15.90;99.90;;;;;;5023328;28;20549;-84
2021/10/27 14:14:03;;;;;;;2.57;2.37;;;15.90;99.90;;;;;;5033229;28;20464;-84
2021/10/27 15:21:29;;;;;;;1.73;1.47;;;15.30;99.90;;;;;;5030498;28;21147;-85
2021/10/27 15:24:08;;;;;;;3.23;1.30;;;15.20;99.90;;;;;;5034401;28;20479;-85
2021/10/27 15:29:34;;;;;;;5.57;1.87;;;15.10;99.90;;;;;;5032323;28;20478;-85
2021/10/27 15:32:22;;;;;;;2.90;0.90;;;15.00;99.90;;;;;;5030321;28;20222;-85
2021/10/27 15:34:57;;;;;;;1.30;1.20;;;14.90;99.90;;;;;;5032348;28;20441;-85
2021/10/27 15:43:15;;;;;;;5.17;2.17;;;14.70;99.90;;;;;;5032202;28;20939;-85
2021/10/27 15:51:06;;;;;;;2.20;1.80;;;14.30;99.90;;;;;;5034173;28;20436;-85
2021/10/27 15:53:34;;;;;;;5.27;2.50;;;14.10;99.90;;;;;;5030618;28;20461;-85
2021/10/27 15:56:00;;;;;;;6.03;2.60;;;13.90;99.90;;;;;;5033373;28;20408;-85
2021/10/27 15:58:25;;;;;;;4.70;2.37;;;13.70;99.90;;;;;;5031486;28;20571;-85
2021/10/27 16:00:51;;;;;;;5.70;2.50;;;13.60;99.90;;;;;;5031992;28;20248;-85
2021/10/27 16:03:17;;;;;;;3.63;2.33;;;13.40;99.90;;;;;;5028014;28;20670;-85
2021/10/27 16:05:45;;;;;;;4.67;2.80;;;13.20;99.90;;;;;;5014896;28;20225;-86
2021/10/27 16:08:13;;;;;;;5.50;2.70;;;13.00;99.90;;;;;;5015442;28;20430;-86
2021/10/27 16:10:39;;;;;;;3.87;2.67;;;12.80;99.90;;;;;;5031402;28;20458;-85
2021/10/27 16:13:06;;;;;;;4.53;2.40;;;12.70;99.90;;;;;;5031446;28;21056;-85
2021/10/27 16:18:00;;;;;;;3.70;2.00;;;12.40;99.90;;;;;;5031631;28;20440;-86
2021/10/27 16:20:26;;;;;;;2.80;2.00;;;12.30;99.90;;;;;;5031777;28;20989;-85
2021/10/27 16:22:51;;;;;;;5.37;2.60;;;12.10;99.90;;;;;;5033277;28;20257;-85
2021/10/27 16:25:17;;;;;;;2.23;1.97;;;12.00;99.90;;;;;;5031280;28;20182;-85
2021/10/27 16:27:43;;;;;;;6.10;2.80;;;11.90;99.90;;;;;;5032087;28;20595;-85
2021/10/27 16:30:09;;;;;;;3.20;2.90;;;11.80;99.90;;;;;;5029786;28;20209;-85
2021/10/27 16:32:35;;;;;;;3.03;2.73;;;11.60;99.90;;;;;;5027361;28;20218;-86
2021/10/27 16:35:00;;;;;;;4.97;2.60;;;11.50;99.90;;;;;;5030764;28;20851;-85
2021/10/27 16:37:27;;;;;;;3.00;1.90;;;11.40;99.90;;;;;;5032876;28;20174;-85
2021/10/27 16:39:54;;;;;;;4.90;2.07;;;11.30;99.90;;;;;;5033105;28;20178;-86
2021/10/27 16:42:19;;;;;;;2.50;2.00;;;11.20;99.90;;;;;;5035964;28;20465;-85
2021/10/27 16:44:46;;;;;;;3.93;2.03;;;11.10;99.90;;;;;;5031611;28;20513;-85
2021/10/27 16:47:11;;;;;;;3.80;2.20;;;11.00;99.90;;;;;;5032091;28;20244;-85
2021/10/27 16:49:37;;;;;;;2.50;2.30;;;10.90;99.90;;;;;;5030497;28;20917;-86
2021/10/27 16:52:03;;;;;;;2.90;2.10;;;10.80;99.90;;;;;;5030176;28;20646;-86
2021/10/27 16:54:28;;;;;;;3.37;2.47;;;10.70;99.90;;;;;;5032649;28;20186;-85
2021/10/27 16:56:54;;;;;;;4.00;2.40;;;10.60;99.90;;;;;;5028381;28;20498;-85
2021/10/27 16:59:19;;;;;;;6.63;1.90;;;10.50;99.90;;;;;;5032475;28;20238;-85
2021/10/27 17:01:46;;;;;;;6.23;2.37;;;10.40;99.90;;;;;;5028306;28;20202;-85
2021/10/27 17:04:12;;;;;;;4.50;2.10;;;10.20;99.90;;;;;;5023953;28;20323;-85
2021/10/27 17:06:38;;;;;;;2.53;2.03;;;10.20;99.90;;;;;;5030297;28;20907;-85
2021/10/27 17:09:04;;;;;;;4.10;1.87;;;10.10;99.90;;;;;;5032333;28;20200;-85
2021/10/27 17:11:30;;;;;;;5.63;2.43;;;10.00;99.90;;;;;;5030960;28;20467;-85
2021/10/27 17:13:55;;;;;;;3.10;1.67;;;9.90;99.90;;;;;;5029689;28;20837;-86
2021/10/27 17:16:21;;;;;;;6.93;2.00;;;9.90;99.90;;;;;;5029499;28;20285;-86
2021/10/27 17:18:47;;;;;;;3.10;2.33;;;9.80;99.90;;;;;;5043841;28;20270;-85
2021/10/27 17:21:13;;;;;;;6.17;3.30;;;9.70;99.90;;;;;;5049818;28;20428;-85
2021/10/27 17:23:39;;;;;;;2.30;2.20;;;9.60;99.90;;;;;;5029244;28;20198;-85
2021/10/27 17:26:06;;;;;;;3.53;2.17;;;9.60;99.90;;;;;;5032078;28;20448;-85
2021/10/27 17:28:32;;;;;;;3.23;2.40;;;9.50;99.90;;;;;;5029946;28;20533;-85
2021/10/27 17:30:58;;;;;;;7.53;3.00;;;9.50;99.90;;;;;;5032095;28;20487;-85
2021/10/27 17:33:25;;;;;;;3.47;2.30;;;9.40;99.90;;;;;;5028057;28;20475;-85
2021/10/27 17:35:54;;;;;;;5.27;2.50;;;9.30;99.90;;;;;;5031938;28;20415;-85
2021/10/27 17:38:20;;;;;;;5.77;2.83;;;9.20;99.90;;;;;;5029578;28;20840;-85
2021/10/27 17:40:48;;;;;;;5.03;2.53;;;9.20;99.90;;;;;;5033259;28;20431;-85
2021/10/27 17:43:14;;;;;;;4.90;3.50;;;9.10;99.90;;;;;;5029034;28;20436;-85
2021/10/27 17:45:43;;;;;;;5.90;3.50;;;9.00;99.90;;;;;;5030631;28;20511;-85
2021/10/27 17:48:19;;;;;;;2.90;2.70;;;9.00;99.90;;;;;;5029521;28;20443;-85
2021/10/27 17:51:00;;;;;;;4.73;3.43;;;8.90;99.90;;;;;;5030662;28;20448;-86
2021/10/27 17:59:00;;;;;;;4.30;3.17;;;8.80;99.90;;;;;;4989375;28;20522;-85
2021/10/27 18:01:28;;;;;;;3.73;3.30;;;8.70;99.90;;;;;;4973797;28;20525;-85
2021/10/27 18:03:56;;;;;;;5.70;3.37;;;8.70;99.90;;;;;;5006695;28;20193;-85
2021/10/27 18:06:22;;;;;;;5.70;2.70;;;8.60;99.90;;;;;;5030488;28;20419;-85
2021/10/27 18:08:49;;;;;;;3.13;2.83;;;8.50;99.90;;;;;;5029462;28;20434;-85
2021/10/27 18:11:20;;;;;;;3.43;3.03;;;8.50;99.90;;;;;;5031727;28;20195;-86
2021/10/27 18:13:49;;;;;;;1.90;1.80;;;8.50;99.90;;;;;;5029222;28;20507;-85
2021/10/27 18:16:32;;;;;;;3.07;1.93;;;8.40;99.90;;;;;;5029456;28;20429;-85
2021/10/27 18:21:40;;;;;;;4.30;2.97;;;8.40;99.90;;;;;;5031865;28;20509;-85
2021/10/27 18:38:00;;;;;;;7.60;3.00;;;8.10;99.90;;;;;;5032744;28;20485;-85
2021/10/27 18:41:14;;;;;;;5.10;2.70;;;8.00;99.90;;;;;;5033197;28;20521;-85
2021/10/27 18:45:43;;;;;;;5.77;3.60;;;7.90;99.90;;;;;;5033445;28;20518;-85
2021/10/27 18:48:12;;;;;;;4.73;3.40;;;7.90;99.90;;;;;;5030827;28;20443;-85
2021/10/27 18:50:47;;;;;;;4.67;2.80;;;7.90;99.90;;;;;;5031214;28;20814;-85
2021/10/27 18:56:33;;;;;;;4.00;2.80;;;7.80;99.90;;;;;;5001829;28;20447;-85
2021/10/27 19:12:28;;;;;;;5.13;3.13;;;7.50;99.90;;;;;;5029836;28;20474;-85
2021/10/27 19:17:21;;;;;;;7.50;2.77;;;7.40;99.90;;;;;;5033283;28;20493;-85
2021/10/27 19:19:47;;;;;;;3.43;3.00;;;7.40;99.90;;;;;;5032071;28;20498;-86
2021/10/27 19:22:13;;;;;;;3.07;2.77;;;7.40;99.90;;;;;;5032031;28;20831;-86
2021/10/27 19:25:26;;;;;;;4.10;3.20;;;7.30;99.90;;;;;;5032212;28;20447;-86
2021/10/27 20:18:57;;;;;;;6.43;4.43;;;6.50;99.90;;;;;;5030683;28;20506;-85
2021/10/27 20:53:29;;;;;;;4.40;4.00;;;6.00;99.90;;;;;;5030361;28;20436;-86
2021/10/27 20:55:56;;;;;;;10.40;4.90;;;6.00;99.90;;;;;;5030365;28;20438;-86
2021/10/27 21:01:10;;;;;;;9.70;5.37;;;6.00;99.90;;;;;;5032726;28;20429;-85
2021/10/27 21:14:16;;;;;;;5.90;5.30;;;5.80;99.90;;;;;;5030005;28;20499;-86
2021/10/27 21:16:42;;;;;;;8.97;4.10;;;5.80;99.90;;;;;;5032152;28;20395;-85
2021/10/27 21:19:08;;;;;;;6.70;5.00;;;5.80;99.90;;;;;;5025601;28;20189;-86
2021/10/27 21:21:33;;;;;;;6.60;5.10;;;5.80;99.90;;;;;;5032262;28;20209;-86
2021/10/27 21:24:00;;;;;;;5.80;5.20;;;5.80;99.90;;;;;;5029653;28;20198;-86
2021/10/27 21:26:25;;;;;;;7.23;5.30;;;5.80;99.90;;;;;;5032051;28;20634;-86
2021/10/27 21:34:25;;;;;;;5.83;5.10;;;5.70;99.90;;;;;;5021708;28;20464;-85
2021/10/27 21:42:40;;;;;;;10.80;5.50;;;5.60;99.90;;;;;;5031643;28;20431;-85
2021/10/27 21:45:07;;;;;;;8.07;5.87;;;5.50;99.90;;;;;;5029735;28;20416;-85
2021/10/27 21:47:34;;;;;;;9.83;5.10;;;5.50;99.90;;;;;;5031535;28;20420;-85
2021/10/27 21:50:00;;;;;;;7.60;5.40;;;5.50;99.90;;;;;;5027192;28;20436;-85
2021/10/27 21:52:25;;;;;;;9.17;6.33;;;5.50;99.90;;;;;;5031438;28;20435;-85
2021/10/27 21:54:51;;;;;;;10.70;5.20;;;5.50;99.90;;;;;;5025185;28;20189;-85
2021/10/27 21:57:17;;;;;;;8.70;6.03;;;5.40;99.90;;;;;;5025640;28;20610;-85
2021/10/27 21:59:43;;;;;;;8.73;6.67;;;5.40;99.90;;;;;;5029658;28;20189;-86
2021/10/27 22:02:09;;;;;;;8.87;6.40;;;5.40;99.90;;;;;;5025316;28;20460;-85
2021/10/27 22:04:34;;;;;;;8.70;5.30;;;5.40;99.90;;;;;;5022199;28;20557;-85
2021/10/27 22:07:00;;;;;;;11.70;5.23;;;5.30;99.90;;;;;;5031459;28;20511;-85
2021/10/27 22:09:25;;;;;;;8.03;4.93;;;5.30;99.90;;;;;;5031075;28;20182;-85
2021/10/27 22:11:52;;;;;;;8.43;4.90;;;5.30;99.90;;;;;;5030098;28;20216;-85
2021/10/27 22:14:19;;;;;;;8.10;5.93;;;5.20;99.90;;;;;;5035207;28;20287;-85
2021/10/27 22:16:45;;;;;;;9.60;5.83;;;5.30;99.90;;;;;;5031737;28;20446;-85
2021/10/27 22:19:13;;;;;;;11.13;5.90;;;5.30;99.90;;;;;;5033337;28;20433;-85
2021/10/27 22:21:40;;;;;;;8.07;6.20;;;5.20;99.90;;;;;;5030959;28;20490;-85
2021/10/27 22:24:08;;;;;;;10.17;6.10;;;5.20;99.90;;;;;;5034973;28;20426;-85
2021/10/27 22:26:35;;;;;;;5.80;4.90;;;5.20;99.90;;;;;;5031275;28;20450;-85
2021/10/27 22:29:01;;;;;;;9.03;5.60;;;5.20;99.90;;;;;;5035174;28;20453;-85
2021/10/27 22:31:33;;;;;;;8.17;6.00;;;5.20;99.90;;;;;;5032589;28;20488;-85
2021/10/27 22:34:00;;;;;;;8.97;5.77;;;5.10;99.90;;;;;;5027230;28;20215;-85
2021/10/27 22:36:25;;;;;;;9.70;5.53;;;5.10;99.90;;;;;;5032835;28;20830;-85
2021/10/27 22:38:51;;;;;;;8.43;6.57;;;5.00;99.90;;;;;;5033703;28;20566;-85
2021/10/27 22:41:17;;;;;;;9.93;5.93;;;5.00;99.90;;;;;;5033365;28;20619;-85
2021/10/27 22:43:43;;;;;;;7.97;6.40;;;5.00;99.90;;;;;;5032501;28;20618;-85
2021/10/27 22:46:10;;;;;;;7.83;5.57;;;5.00;99.90;;;;;;5033359;28;20242;-85
2021/10/27 22:48:35;;;;;;;11.27;5.73;;;4.90;99.90;;;;;;5032147;28;20435;-85
2021/10/27 22:51:01;;;;;;;9.63;6.40;;;4.90;99.90;;;;;;5034536;28;20447;-85
2021/10/27 22:53:27;;;;;;;6.73;6.07;;;4.90;99.90;;;;;;5030906;28;20214;-85
2021/10/27 22:55:53;;;;;;;8.43;6.70;;;4.90;99.90;;;;;;5032168;28;20205;-85
2021/10/27 22:58:29;;;;;;;10.93;6.97;;;4.80;99.90;;;;;;5032431;28;20271;-85
2021/10/27 23:01:05;;;;;;;9.60;6.30;;;4.80;99.90;;;;;;5034538;28;20901;-85
2021/10/27 23:06:10;;;;;;;7.43;5.60;;;4.80;99.90;;;;;;5034536;28;20408;-85
2021/10/27 23:41:30;;;;;;;10.97;7.77;;;4.50;99.90;;;;;;5014268;28;20614;-85
2021/10/27 23:44:07;;;;;;;7.80;5.70;;;4.50;99.90;;;;;;5013795;28;20819;-85
2021/10/27 23:46:33;;;;;;;9.20;6.97;;;4.40;99.90;;;;;;5031680;28;20980;-85
2021/10/27 23:48:59;;;;;;;13.30;7.20;;;4.40;99.90;;;;;;5029739;28;20429;-85
2021/10/27 23:51:27;;;;;;;14.83;7.50;;;4.30;99.90;;;;;;5032118;28;20458;-85
2021/10/27 23:54:00;;;;;;;9.63;6.87;;;4.30;99.90;;;;;;5033329;28;20679;-85
